Terminal Aerodrome Forecast
Issued by NWS Blacksburg, VA

Current Version | Previous Version | Graphics & Text | Print | Product List | Glossary On
Versions: 1 2 3 4 5 6 7 8 9 10 11 12 13 14 15 16 17 18 19 20 21 22 23 24
000
FTUS41 KRNK 271120
TAFBLF
TAF
KBLF 271120Z 2712/2812 23005KT P6SM BKN050
      TEMPO 2713/2715 BKN025
     FM271600 24008KT P6SM VCSH BKN060
     FM280000 21004KT P6SM OVC060
     FM281100 20004KT 6SM -SHRA OVC025=

USA.gov is the U.S. government's official web portal to all federal, state and local government web resources and services.